»·PEaware :: N2378B L88-KSBP

N2378B :: L88-KSBP

FLIGHT INFORMATION

Flight Status: Arrived
Operator: Privately registered:
United States
More flights under this callsign
Pilot: Walter H. (12328)
Aircraft: CESSNA 172 SKYHAWK
(C172)
More flights by this aircraft type
Origin: L88 New Cuyama
United States
Destination: KSBP San Luis Co Regl
United States
More flights between these airports :: More routes between these airports
Route: DCT
File this flight plan on PilotEdge
Remarks: FOR CAT II
Altitude:
(Current/Filed)
7,500ft
Speed:
(Current/Filed)
120kts
Departed: 06-Feb-20 07:39 AM
Arrived: 06-Feb-20 08:15 AM
Distance/Time
Traveled:
50nm/0:36
Distance/Time
To Go:
Arrived

Flight Plot

Page will automatically refresh every two minutes.


Map Options




Map Legend


Flown Route
Filed Route
Departure Airport
Arrival Airport
Navaid (VOR, NDB)
Fix

Horizontal Profiles

Position Reports

Time Latitude Longitude Heading Altitude Ground
Speed
06-Feb-20 07:29 34.942853 -119.690285 204 2156ft 0kts
06-Feb-20 07:30 34.942853 -119.690285 204 2156ft 0kts
06-Feb-20 07:32 34.942853 -119.690285 204 2156ft 0kts
06-Feb-20 07:33 34.942853 -119.690285 204 2156ft 0kts
06-Feb-20 07:34 34.942853 -119.690285 204 2156ft 0kts
06-Feb-20 07:35 34.942853 -119.690285 204 2156ft 0kts
06-Feb-20 07:36 34.942853 -119.690285 204 2156ft 0kts
06-Feb-20 07:37 34.942853 -119.690285 204 2156ft 0kts
06-Feb-20 07:38 34.942426 -119.691307 126 2155ft 0kts
06-Feb-20 07:39 34.937398 -119.680154 115 2375ft 85kts
06-Feb-20 07:40 34.921786 -119.674558 302 3151ft 89kts
06-Feb-20 07:41 34.933287 -119.690592 318 4144ft 72kts
06-Feb-20 07:42 34.948065 -119.716524 304 4493ft 104kts
06-Feb-20 07:43 34.960383 -119.748027 300 5049ft 94kts
06-Feb-20 07:44 34.969360 -119.774725 302 5863ft 78kts
06-Feb-20 07:45 34.978457 -119.802337 301 5957ft 93kts
06-Feb-20 07:46 34.987956 -119.832204 300 5957ft 94kts
06-Feb-20 07:47 34.997410 -119.862267 300 5957ft 95kts
06-Feb-20 07:48 35.006820 -119.892326 300 5965ft 94kts
06-Feb-20 07:49 35.016217 -119.922384 300 5966ft 95kts
06-Feb-20 07:50 35.025631 -119.952547 300 5963ft 95kts
06-Feb-20 07:51 35.035105 -119.982967 301 5955ft 94kts
06-Feb-20 07:52 35.044060 -120.011758 303 5956ft 91kts
06-Feb-20 07:53 35.052082 -120.037774 306 5957ft 79kts
06-Feb-20 07:53 35.058970 -120.059680 305 5957ft 85kts
06-Feb-20 07:55 35.068915 -120.091989 304 5956ft 88kts
06-Feb-20 07:55 35.075996 -120.115520 304 5956ft 88kts
06-Feb-20 07:56 35.084628 -120.143614 305 5956ft 88kts
06-Feb-20 07:58 35.094744 -120.176333 305 5956ft 87kts
06-Feb-20 07:58 35.102233 -120.200357 304 5833ft 97kts
06-Feb-20 07:59 35.111128 -120.229579 306 5536ft 80kts
06-Feb-20 08:00 35.118599 -120.253855 308 5605ft 71kts
06-Feb-20 08:01 35.127239 -120.281204 304 5606ft 101kts
06-Feb-20 08:02 35.137530 -120.314891 303 5603ft 108kts
06-Feb-20 08:03 35.148161 -120.349529 303 5603ft 109kts
06-Feb-20 08:04 35.158721 -120.383922 302 5602ft 106kts
06-Feb-20 08:05 35.168110 -120.414759 304 5600ft 84kts
06-Feb-20 08:06 35.176284 -120.441203 303 5602ft 82kts
06-Feb-20 08:07 35.184309 -120.467360 302 5601ft 81kts
06-Feb-20 08:08 35.190594 -120.495317 294 5212ft 94kts
06-Feb-20 08:09 35.197100 -120.525968 296 4483ft 94kts
06-Feb-20 08:10 35.205221 -120.555900 295 3682ft 94kts
06-Feb-20 08:11 35.210393 -120.592732 296 1804ft 121kts
06-Feb-20 08:12 35.223550 -120.616781 308 779ft 71kts
06-Feb-20 08:13 35.234083 -120.635198 303 216ft 54kts
06-Feb-20 08:14 35.237415 -120.639908 4 216ft 0kts
06-Feb-20 08:15 35.237415 -120.639908 4 216ft 0kts
06-Feb-20 08:16 35.236831 -120.638194 122 216ft 9kts
06-Feb-20 08:17 35.237698 -120.637141 40 216ft 0kts
06-Feb-20 08:18 35.237698 -120.637141 40 216ft 0kts
06-Feb-20 08:19 35.237698 -120.637141 40 216ft 0kts
06-Feb-20 08:20 35.237698 -120.637141 40 216ft 0kts
06-Feb-20 08:21 35.237698 -120.637141 40 216ft 0kts

Navigation Log

Ident Type
Flight plan parsing failed, navigation log unavailable